sensor_id;sensor_type;location;lat;lon;timestamp;P1;durP1;ratioP1;P2;durP2;ratioP2
5923;SDS011;2987;50.884;14.818;2022-09-13T00:00:36;7.33;;;5.67;;
5923;SDS011;2987;50.884;14.818;2022-09-13T00:03:04;6.73;;;5.83;;
5923;SDS011;2987;50.884;14.818;2022-09-13T00:05:30;6.77;;;6.17;;
5923;SDS011;2987;50.884;14.818;2022-09-13T00:07:57;7.40;;;6.60;;
5923;SDS011;2987;50.884;14.818;2022-09-13T00:10:23;7.43;;;6.73;;
5923;SDS011;2987;50.884;14.818;2022-09-13T00:12:50;8.13;;;6.90;;
5923;SDS011;2987;50.884;14.818;2022-09-13T00:15:16;8.87;;;7.20;;
5923;SDS011;2987;50.884;14.818;2022-09-13T00:17:43;8.27;;;6.37;;
5923;SDS011;2987;50.884;14.818;2022-09-13T00:20:10;8.03;;;6.60;;
5923;SDS011;2987;50.884;14.818;2022-09-13T00:22:36;8.00;;;5.83;;
5923;SDS011;2987;50.884;14.818;2022-09-13T00:25:02;8.10;;;6.00;;
5923;SDS011;2987;50.884;14.818;2022-09-13T00:27:31;6.17;;;5.60;;
5923;SDS011;2987;50.884;14.818;2022-09-13T00:29:58;6.20;;;5.33;;
5923;SDS011;2987;50.884;14.818;2022-09-13T00:32:24;6.97;;;5.73;;
5923;SDS011;2987;50.884;14.818;2022-09-13T00:34:51;8.17;;;5.43;;
5923;SDS011;2987;50.884;14.818;2022-09-13T00:37:17;7.33;;;5.63;;
5923;SDS011;2987;50.884;14.818;2022-09-13T00:39:43;7.07;;;5.10;;
5923;SDS011;2987;50.884;14.818;2022-09-13T00:42:10;6.57;;;5.43;;
5923;SDS011;2987;50.884;14.818;2022-09-13T00:50:05;5.03;;;4.60;;
5923;SDS011;2987;50.884;14.818;2022-09-13T00:52:37;5.37;;;4.90;;
5923;SDS011;2987;50.884;14.818;2022-09-13T00:57:36;5.80;;;5.30;;
5923;SDS011;2987;50.884;14.818;2022-09-13T01:00:09;6.00;;;5.50;;
5923;SDS011;2987;50.884;14.818;2022-09-13T01:02:43;9.53;;;5.53;;
5923;SDS011;2987;50.884;14.818;2022-09-13T01:05:14;6.37;;;5.77;;
5923;SDS011;2987;50.884;14.818;2022-09-13T01:07:43;5.93;;;5.33;;
5923;SDS011;2987;50.884;14.818;2022-09-13T01:10:11;5.90;;;5.37;;
5923;SDS011;2987;50.884;14.818;2022-09-13T01:12:46;7.07;;;5.40;;
5923;SDS011;2987;50.884;14.818;2022-09-13T01:15:19;5.90;;;5.30;;
5923;SDS011;2987;50.884;14.818;2022-09-13T01:17:45;6.47;;;5.30;;
5923;SDS011;2987;50.884;14.818;2022-09-13T01:20:13;5.30;;;4.80;;
5923;SDS011;2987;50.884;14.818;2022-09-13T01:22:50;5.97;;;5.37;;
5923;SDS011;2987;50.884;14.818;2022-09-13T01:25:46;6.27;;;5.50;;
5923;SDS011;2987;50.884;14.818;2022-09-13T01:28:54;5.37;;;4.97;;
5923;SDS011;2987;50.884;14.818;2022-09-13T01:31:34;5.70;;;5.20;;
5923;SDS011;2987;50.884;14.818;2022-09-13T01:34:18;6.80;;;6.10;;
5923;SDS011;2987;50.884;14.818;2022-09-13T01:37:13;7.33;;;5.30;;
5923;SDS011;2987;50.884;14.818;2022-09-13T01:39:58;7.70;;;5.63;;
5923;SDS011;2987;50.884;14.818;2022-09-13T01:50:52;5.50;;;5.00;;
5923;SDS011;2987;50.884;14.818;2022-09-13T01:53:32;6.37;;;5.10;;
5923;SDS011;2987;50.884;14.818;2022-09-13T01:56:18;5.57;;;5.07;;
5923;SDS011;2987;50.884;14.818;2022-09-13T01:58:55;5.83;;;4.83;;
5923;SDS011;2987;50.884;14.818;2022-09-13T02:01:37;5.37;;;4.87;;
5923;SDS011;2987;50.884;14.818;2022-09-13T02:04:10;6.70;;;5.47;;
5923;SDS011;2987;50.884;14.818;2022-09-13T02:06:45;6.73;;;4.73;;
5923;SDS011;2987;50.884;14.818;2022-09-13T02:09:18;5.77;;;5.20;;
5923;SDS011;2987;50.884;14.818;2022-09-13T02:11:50;5.80;;;5.03;;
5923;SDS011;2987;50.884;14.818;2022-09-13T02:14:26;8.87;;;5.23;;
5923;SDS011;2987;50.884;14.818;2022-09-13T02:17:01;7.77;;;5.70;;
5923;SDS011;2987;50.884;14.818;2022-09-13T02:19:34;5.77;;;5.17;;
5923;SDS011;2987;50.884;14.818;2022-09-13T02:22:05;6.37;;;5.13;;
5923;SDS011;2987;50.884;14.818;2022-09-13T02:24:39;5.93;;;5.33;;
5923;SDS011;2987;50.884;14.818;2022-09-13T02:27:11;6.80;;;5.37;;
5923;SDS011;2987;50.884;14.818;2022-09-13T02:29:44;7.57;;;5.93;;
5923;SDS011;2987;50.884;14.818;2022-09-13T02:32:17;7.53;;;6.20;;
5923;SDS011;2987;50.884;14.818;2022-09-13T02:34:52;6.13;;;5.23;;
5923;SDS011;2987;50.884;14.818;2022-09-13T02:37:23;6.37;;;5.73;;
5923;SDS011;2987;50.884;14.818;2022-09-13T02:39:53;13.00;;;5.93;;
5923;SDS011;2987;50.884;14.818;2022-09-13T02:42:29;10.43;;;5.93;;
5923;SDS011;2987;50.884;14.818;2022-09-13T02:45:06;7.57;;;6.30;;
5923;SDS011;2987;50.884;14.818;2022-09-13T03:01:19;9.13;;;7.37;;
5923;SDS011;2987;50.884;14.818;2022-09-13T03:06:12;8.77;;;7.87;;
5923;SDS011;2987;50.884;14.818;2022-09-13T03:08:46;10.47;;;7.63;;
5923;SDS011;2987;50.884;14.818;2022-09-13T03:28:30;22.27;;;13.03;;
5923;SDS011;2987;50.884;14.818;2022-09-13T03:31:22;16.07;;;10.60;;
5923;SDS011;2987;50.884;14.818;2022-09-13T03:39:17;12.27;;;10.37;;
5923;SDS011;2987;50.884;14.818;2022-09-13T03:44:36;14.00;;;10.63;;
5923;SDS011;2987;50.884;14.818;2022-09-13T03:47:05;20.43;;;12.90;;
5923;SDS011;2987;50.884;14.818;2022-09-13T03:49:33;15.53;;;11.67;;
5923;SDS011;2987;50.884;14.818;2022-09-13T03:52:03;15.43;;;10.77;;
5923;SDS011;2987;50.884;14.818;2022-09-13T03:54:30;17.13;;;12.17;;
5923;SDS011;2987;50.884;14.818;2022-09-13T03:57:05;18.53;;;13.10;;
5923;SDS011;2987;50.884;14.818;2022-09-13T03:59:37;17.33;;;13.43;;
5923;SDS011;2987;50.884;14.818;2022-09-13T04:02:08;18.33;;;14.53;;
5923;SDS011;2987;50.884;14.818;2022-09-13T04:04:37;19.67;;;15.57;;
5923;SDS011;2987;50.884;14.818;2022-09-13T04:07:04;21.37;;;13.83;;
5923;SDS011;2987;50.884;14.818;2022-09-13T04:09:30;18.20;;;14.57;;
5923;SDS011;2987;50.884;14.818;2022-09-13T04:11:56;18.63;;;13.83;;
5923;SDS011;2987;50.884;14.818;2022-09-13T04:14:22;16.00;;;13.60;;
5923;SDS011;2987;50.884;14.818;2022-09-13T04:16:52;20.83;;;14.37;;
5923;SDS011;2987;50.884;14.818;2022-09-13T04:19:19;19.93;;;14.20;;
5923;SDS011;2987;50.884;14.818;2022-09-13T04:21:47;16.90;;;12.33;;
5923;SDS011;2987;50.884;14.818;2022-09-13T04:24:14;16.23;;;12.43;;
5923;SDS011;2987;50.884;14.818;2022-09-13T04:26:42;13.83;;;11.70;;
5923;SDS011;2987;50.884;14.818;2022-09-13T04:29:09;13.17;;;11.13;;
5923;SDS011;2987;50.884;14.818;2022-09-13T04:31:36;13.03;;;10.77;;
5923;SDS011;2987;50.884;14.818;2022-09-13T04:34:02;12.93;;;10.33;;
5923;SDS011;2987;50.884;14.818;2022-09-13T04:36:30;12.43;;;11.10;;
5923;SDS011;2987;50.884;14.818;2022-09-13T04:38:57;12.47;;;11.17;;
5923;SDS011;2987;50.884;14.818;2022-09-13T04:41:28;14.57;;;11.80;;
5923;SDS011;2987;50.884;14.818;2022-09-13T04:43:54;14.07;;;11.70;;
5923;SDS011;2987;50.884;14.818;2022-09-13T04:46:23;14.27;;;12.00;;
5923;SDS011;2987;50.884;14.818;2022-09-13T04:48:50;12.70;;;11.03;;
5923;SDS011;2987;50.884;14.818;2022-09-13T04:51:17;12.43;;;10.93;;
5923;SDS011;2987;50.884;14.818;2022-09-13T04:53:44;14.80;;;11.07;;
5923;SDS011;2987;50.884;14.818;2022-09-13T04:56:10;14.70;;;11.10;;
5923;SDS011;2987;50.884;14.818;2022-09-13T04:58:39;12.67;;;11.27;;
5923;SDS011;2987;50.884;14.818;2022-09-13T05:01:07;11.83;;;10.63;;
5923;SDS011;2987;50.884;14.818;2022-09-13T05:03:35;11.70;;;10.50;;
5923;SDS011;2987;50.884;14.818;2022-09-13T05:06:02;12.40;;;11.20;;
5923;SDS011;2987;50.884;14.818;2022-09-13T05:08:31;12.97;;;10.03;;
5923;SDS011;2987;50.884;14.818;2022-09-13T05:10:59;11.90;;;10.07;;
5923;SDS011;2987;50.884;14.818;2022-09-13T05:13:26;11.40;;;9.97;;
5923;SDS011;2987;50.884;14.818;2022-09-13T05:15:54;19.17;;;10.57;;
5923;SDS011;2987;50.884;14.818;2022-09-13T05:18:21;11.73;;;10.10;;
5923;SDS011;2987;50.884;14.818;2022-09-13T05:20:52;11.00;;;9.90;;
5923;SDS011;2987;50.884;14.818;2022-09-13T05:23:20;12.53;;;9.67;;
5923;SDS011;2987;50.884;14.818;2022-09-13T05:25:56;10.23;;;9.10;;
5923;SDS011;2987;50.884;14.818;2022-09-13T05:28:26;9.97;;;8.90;;
5923;SDS011;2987;50.884;14.818;2022-09-13T05:30:56;15.80;;;10.17;;
5923;SDS011;2987;50.884;14.818;2022-09-13T05:33:26;10.00;;;8.77;;
5923;SDS011;2987;50.884;14.818;2022-09-13T05:35:54;13.37;;;8.83;;
5923;SDS011;2987;50.884;14.818;2022-09-13T05:38:21;10.73;;;9.63;;
5923;SDS011;2987;50.884;14.818;2022-09-13T05:40:52;9.70;;;8.70;;
5923;SDS011;2987;50.884;14.818;2022-09-13T05:43:22;11.67;;;9.33;;
5923;SDS011;2987;50.884;14.818;2022-09-13T05:51:08;14.20;;;10.17;;
5923;SDS011;2987;50.884;14.818;2022-09-13T05:53:37;10.90;;;8.47;;
5923;SDS011;2987;50.884;14.818;2022-09-13T05:58:31;11.23;;;8.40;;
5923;SDS011;2987;50.884;14.818;2022-09-13T06:00:59;10.40;;;8.73;;
5923;SDS011;2987;50.884;14.818;2022-09-13T06:03:25;9.90;;;8.90;;
5923;SDS011;2987;50.884;14.818;2022-09-13T06:05:55;10.37;;;9.37;;
5923;SDS011;2987;50.884;14.818;2022-09-13T06:08:23;10.23;;;8.33;;
5923;SDS011;2987;50.884;14.818;2022-09-13T06:10:53;9.50;;;8.50;;
5923;SDS011;2987;50.884;14.818;2022-09-13T06:13:20;10.10;;;8.60;;
5923;SDS011;2987;50.884;14.818;2022-09-13T06:15:47;9.47;;;8.47;;
5923;SDS011;2987;50.884;14.818;2022-09-13T06:18:13;9.10;;;8.20;;
5923;SDS011;2987;50.884;14.818;2022-09-13T06:20:39;10.07;;;8.90;;
5923;SDS011;2987;50.884;14.818;2022-09-13T06:23:05;10.87;;;8.30;;
5923;SDS011;2987;50.884;14.818;2022-09-13T06:25:31;9.47;;;7.93;;
5923;SDS011;2987;50.884;14.818;2022-09-13T06:27:57;9.10;;;8.17;;
5923;SDS011;2987;50.884;14.818;2022-09-13T06:30:23;8.53;;;7.73;;
5923;SDS011;2987;50.884;14.818;2022-09-13T06:32:49;10.37;;;8.53;;
5923;SDS011;2987;50.884;14.818;2022-09-13T06:35:16;9.23;;;8.17;;
5923;SDS011;2987;50.884;14.818;2022-09-13T06:37:42;9.90;;;7.77;;
5923;SDS011;2987;50.884;14.818;2022-09-13T06:40:09;9.37;;;8.33;;
5923;SDS011;2987;50.884;14.818;2022-09-13T06:42:35;9.87;;;7.93;;
5923;SDS011;2987;50.884;14.818;2022-09-13T06:45:01;10.43;;;7.67;;
5923;SDS011;2987;50.884;14.818;2022-09-13T06:47:28;10.63;;;7.93;;
5923;SDS011;2987;50.884;14.818;2022-09-13T06:49:55;9.43;;;7.30;;
5923;SDS011;2987;50.884;14.818;2022-09-13T06:52:22;9.40;;;8.30;;
5923;SDS011;2987;50.884;14.818;2022-09-13T06:54:48;7.67;;;6.97;;
5923;SDS011;2987;50.884;14.818;2022-09-13T06:57:15;9.20;;;7.73;;
5923;SDS011;2987;50.884;14.818;2022-09-13T06:59:42;8.30;;;7.17;;
5923;SDS011;2987;50.884;14.818;2022-09-13T07:02:08;8.13;;;7.03;;
5923;SDS011;2987;50.884;14.818;2022-09-13T07:04:35;9.20;;;7.07;;
5923;SDS011;2987;50.884;14.818;2022-09-13T07:07:02;9.90;;;7.80;;
5923;SDS011;2987;50.884;14.818;2022-09-13T07:09:28;9.20;;;7.40;;
5923;SDS011;2987;50.884;14.818;2022-09-13T07:11:54;10.63;;;8.20;;
5923;SDS011;2987;50.884;14.818;2022-09-13T07:14:22;10.30;;;8.13;;
5923;SDS011;2987;50.884;14.818;2022-09-13T07:16:51;9.27;;;8.00;;
5923;SDS011;2987;50.884;14.818;2022-09-13T07:19:23;9.00;;;8.10;;
5923;SDS011;2987;50.884;14.818;2022-09-13T07:21:51;10.53;;;7.80;;
5923;SDS011;2987;50.884;14.818;2022-09-13T07:24:19;9.73;;;8.77;;
5923;SDS011;2987;50.884;14.818;2022-09-13T07:26:47;8.77;;;7.87;;
5923;SDS011;2987;50.884;14.818;2022-09-13T07:29:15;8.70;;;7.77;;
5923;SDS011;2987;50.884;14.818;2022-09-13T07:31:48;9.00;;;8.10;;
5923;SDS011;2987;50.884;14.818;2022-09-13T07:34:16;9.13;;;8.27;;
5923;SDS011;2987;50.884;14.818;2022-09-13T07:36:45;7.50;;;6.80;;
5923;SDS011;2987;50.884;14.818;2022-09-13T07:39:13;9.60;;;6.80;;
5923;SDS011;2987;50.884;14.818;2022-09-13T07:41:40;7.97;;;7.17;;
5923;SDS011;2987;50.884;14.818;2022-09-13T07:44:08;10.83;;;7.10;;
5923;SDS011;2987;50.884;14.818;2022-09-13T07:46:36;8.93;;;7.77;;
5923;SDS011;2987;50.884;14.818;2022-09-13T07:49:06;10.70;;;7.33;;
5923;SDS011;2987;50.884;14.818;2022-09-13T07:51:33;10.40;;;7.07;;
5923;SDS011;2987;50.884;14.818;2022-09-13T07:54:03;10.77;;;7.40;;
5923;SDS011;2987;50.884;14.818;2022-09-13T07:56:33;7.80;;;6.50;;
5923;SDS011;2987;50.884;14.818;2022-09-13T07:59:02;7.33;;;6.60;;
5923;SDS011;2987;50.884;14.818;2022-09-13T08:01:35;8.17;;;6.13;;
5923;SDS011;2987;50.884;14.818;2022-09-13T08:04:04;9.77;;;7.30;;
5923;SDS011;2987;50.884;14.818;2022-09-13T08:06:33;7.33;;;6.10;;
5923;SDS011;2987;50.884;14.818;2022-09-13T08:09:02;8.30;;;6.73;;
5923;SDS011;2987;50.884;14.818;2022-09-13T08:11:32;8.37;;;6.83;;
5923;SDS011;2987;50.884;14.818;2022-09-13T08:14:00;7.90;;;5.80;;
5923;SDS011;2987;50.884;14.818;2022-09-13T08:16:27;9.03;;;6.30;;
5923;SDS011;2987;50.884;14.818;2022-09-13T08:18:56;6.80;;;6.10;;
5923;SDS011;2987;50.884;14.818;2022-09-13T08:21:25;6.70;;;5.67;;
5923;SDS011;2987;50.884;14.818;2022-09-13T08:23:53;7.93;;;6.40;;
5923;SDS011;2987;50.884;14.818;2022-09-13T08:26:22;6.63;;;6.03;;
5923;SDS011;2987;50.884;14.818;2022-09-13T08:28:48;9.10;;;6.00;;
5923;SDS011;2987;50.884;14.818;2022-09-13T08:31:15;7.50;;;6.37;;
5923;SDS011;2987;50.884;14.818;2022-09-13T08:33:43;8.10;;;6.37;;
5923;SDS011;2987;50.884;14.818;2022-09-13T08:36:10;7.40;;;6.70;;
5923;SDS011;2987;50.884;14.818;2022-09-13T08:38:36;7.40;;;6.00;;
5923;SDS011;2987;50.884;14.818;2022-09-13T08:41:04;7.87;;;5.80;;
5923;SDS011;2987;50.884;14.818;2022-09-13T08:44:04;7.43;;;6.77;;
5923;SDS011;2987;50.884;14.818;2022-09-13T08:46:39;9.70;;;6.63;;
5923;SDS011;2987;50.884;14.818;2022-09-13T08:49:11;7.03;;;6.33;;
5923;SDS011;2987;50.884;14.818;2022-09-13T08:51:45;9.93;;;6.30;;
5923;SDS011;2987;50.884;14.818;2022-09-13T08:54:17;6.97;;;6.27;;
5923;SDS011;2987;50.884;14.818;2022-09-13T08:56:48;6.53;;;5.90;;
5923;SDS011;2987;50.884;14.818;2022-09-13T09:02:27;7.13;;;6.00;;
5923;SDS011;2987;50.884;14.818;2022-09-13T09:05:05;7.37;;;6.23;;
5923;SDS011;2987;50.884;14.818;2022-09-13T09:12:46;8.03;;;6.57;;
5923;SDS011;2987;50.884;14.818;2022-09-13T09:15:25;7.70;;;6.10;;
5923;SDS011;2987;50.884;14.818;2022-09-13T09:18:05;6.70;;;6.10;;
5923;SDS011;2987;50.884;14.818;2022-09-13T09:20:40;8.57;;;5.97;;
5923;SDS011;2987;50.884;14.818;2022-09-13T09:23:12;9.77;;;6.30;;
5923;SDS011;2987;50.884;14.818;2022-09-13T09:25:43;7.60;;;6.03;;
5923;SDS011;2987;50.884;14.818;2022-09-13T09:28:12;6.20;;;5.60;;
5923;SDS011;2987;50.884;14.818;2022-09-13T09:30:42;6.80;;;6.00;;
5923;SDS011;2987;50.884;14.818;2022-09-13T09:33:43;7.20;;;6.13;;
5923;SDS011;2987;50.884;14.818;2022-09-13T09:36:30;10.07;;;6.20;;
5923;SDS011;2987;50.884;14.818;2022-09-13T09:39:18;7.20;;;6.20;;
5923;SDS011;2987;50.884;14.818;2022-09-13T09:41:44;7.50;;;6.70;;
5923;SDS011;2987;50.884;14.818;2022-09-13T09:49:14;7.73;;;6.60;;
5923;SDS011;2987;50.884;14.818;2022-09-13T09:52:04;7.67;;;6.50;;
5923;SDS011;2987;50.884;14.818;2022-09-13T09:54:33;6.53;;;5.93;;
5923;SDS011;2987;50.884;14.818;2022-09-13T09:57:00;8.40;;;5.90;;
5923;SDS011;2987;50.884;14.818;2022-09-13T09:59:28;6.70;;;6.10;;
5923;SDS011;2987;50.884;14.818;2022-09-13T10:01:57;6.57;;;5.90;;
5923;SDS011;2987;50.884;14.818;2022-09-13T10:04:29;7.70;;;6.77;;
5923;SDS011;2987;50.884;14.818;2022-09-13T10:10:02;8.70;;;6.57;;
5923;SDS011;2987;50.884;14.818;2022-09-13T10:12:34;6.57;;;5.97;;
5923;SDS011;2987;50.884;14.818;2022-09-13T10:17:40;9.43;;;6.87;;
5923;SDS011;2987;50.884;14.818;2022-09-13T10:20:20;7.43;;;6.30;;
5923;SDS011;2987;50.884;14.818;2022-09-13T10:25:54;8.00;;;5.93;;
5923;SDS011;2987;50.884;14.818;2022-09-13T10:28:27;8.17;;;6.00;;
5923;SDS011;2987;50.884;14.818;2022-09-13T10:33:35;7.30;;;6.60;;
5923;SDS011;2987;50.884;14.818;2022-09-13T10:36:06;10.10;;;6.47;;
5923;SDS011;2987;50.884;14.818;2022-09-13T10:41:08;7.60;;;5.63;;
5923;SDS011;2987;50.884;14.818;2022-09-13T10:43:46;7.33;;;5.93;;
5923;SDS011;2987;50.884;14.818;2022-09-13T10:46:20;6.30;;;5.70;;
5923;SDS011;2987;50.884;14.818;2022-09-13T10:48:48;6.93;;;5.83;;
5923;SDS011;2987;50.884;14.818;2022-09-13T10:51:33;8.00;;;5.83;;
5923;SDS011;2987;50.884;14.818;2022-09-13T10:54:19;7.03;;;6.13;;
5923;SDS011;2987;50.884;14.818;2022-09-13T10:56:48;7.23;;;5.90;;
5923;SDS011;2987;50.884;14.818;2022-09-13T10:59:23;8.20;;;6.13;;
5923;SDS011;2987;50.884;14.818;2022-09-13T11:04:55;6.70;;;6.00;;
5923;SDS011;2987;50.884;14.818;2022-09-13T11:08:04;8.13;;;6.30;;
5923;SDS011;2987;50.884;14.818;2022-09-13T11:32:48;7.73;;;5.80;;
5923;SDS011;2987;50.884;14.818;2022-09-13T11:35:42;7.00;;;5.73;;
5923;SDS011;2987;50.884;14.818;2022-09-13T11:41:33;6.70;;;6.00;;
5923;SDS011;2987;50.884;14.818;2022-09-13T11:54:38;7.00;;;6.40;;
5923;SDS011;2987;50.884;14.818;2022-09-13T12:00:04;7.03;;;6.10;;
5923;SDS011;2987;50.884;14.818;2022-09-13T12:02:44;7.37;;;6.67;;
5923;SDS011;2987;50.884;14.818;2022-09-13T12:08:12;9.73;;;5.90;;
5923;SDS011;2987;50.884;14.818;2022-09-13T12:16:08;6.53;;;5.67;;
5923;SDS011;2987;50.884;14.818;2022-09-13T12:21:13;9.87;;;6.10;;
5923;SDS011;2987;50.884;14.818;2022-09-13T12:23:50;9.17;;;6.60;;
5923;SDS011;2987;50.884;14.818;2022-09-13T12:26:31;6.43;;;5.83;;
5923;SDS011;2987;50.884;14.818;2022-09-13T12:29:12;9.77;;;6.50;;
5923;SDS011;2987;50.884;14.818;2022-09-13T12:31:51;8.10;;;6.70;;
5923;SDS011;2987;50.884;14.818;2022-09-13T12:34:26;8.70;;;6.90;;
5923;SDS011;2987;50.884;14.818;2022-09-13T12:37:18;8.07;;;5.93;;
5923;SDS011;2987;50.884;14.818;2022-09-13T12:40:03;8.93;;;6.00;;
5923;SDS011;2987;50.884;14.818;2022-09-13T12:42:49;6.83;;;6.23;;
5923;SDS011;2987;50.884;14.818;2022-09-13T12:51:07;6.50;;;5.80;;
5923;SDS011;2987;50.884;14.818;2022-09-13T13:09:52;10.13;;;6.03;;
5923;SDS011;2987;50.884;14.818;2022-09-13T13:12:38;8.77;;;6.00;;
5923;SDS011;2987;50.884;14.818;2022-09-13T13:15:06;7.80;;;5.73;;
5923;SDS011;2987;50.884;14.818;2022-09-13T13:18:20;6.27;;;5.63;;
5923;SDS011;2987;50.884;14.818;2022-09-13T13:21:20;7.47;;;5.80;;
5923;SDS011;2987;50.884;14.818;2022-09-13T13:37:04;11.17;;;5.50;;
5923;SDS011;2987;50.884;14.818;2022-09-13T13:40:09;5.30;;;4.80;;
5923;SDS011;2987;50.884;14.818;2022-09-13T13:42:37;5.70;;;5.13;;
5923;SDS011;2987;50.884;14.818;2022-09-13T13:45:13;6.27;;;5.00;;
5923;SDS011;2987;50.884;14.818;2022-09-13T13:50:33;6.43;;;5.10;;
5923;SDS011;2987;50.884;14.818;2022-09-13T13:53:13;5.40;;;4.90;;
5923;SDS011;2987;50.884;14.818;2022-09-13T14:00:58;5.80;;;5.20;;
5923;SDS011;2987;50.884;14.818;2022-09-13T14:08:44;5.43;;;4.93;;
5923;SDS011;2987;50.884;14.818;2022-09-13T14:11:26;7.47;;;4.80;;
5923;SDS011;2987;50.884;14.818;2022-09-13T14:14:23;7.93;;;5.90;;
5923;SDS011;2987;50.884;14.818;2022-09-13T14:17:19;8.30;;;5.70;;
5923;SDS011;2987;50.884;14.818;2022-09-13T14:19:59;6.60;;;6.00;;
5923;SDS011;2987;50.884;14.818;2022-09-13T14:22:29;8.03;;;5.90;;
5923;SDS011;2987;50.884;14.818;2022-09-13T14:24:56;6.47;;;5.57;;
5923;SDS011;2987;50.884;14.818;2022-09-13T14:27:26;9.00;;;5.40;;
5923;SDS011;2987;50.884;14.818;2022-09-13T14:29:59;6.30;;;5.60;;
5923;SDS011;2987;50.884;14.818;2022-09-13T14:32:29;7.27;;;6.00;;
5923;SDS011;2987;50.884;14.818;2022-09-13T14:35:06;6.83;;;4.93;;
5923;SDS011;2987;50.884;14.818;2022-09-13T14:37:53;5.97;;;4.77;;
5923;SDS011;2987;50.884;14.818;2022-09-13T14:40:23;5.90;;;5.40;;
5923;SDS011;2987;50.884;14.818;2022-09-13T14:42:52;5.67;;;4.90;;
5923;SDS011;2987;50.884;14.818;2022-09-13T14:45:21;5.77;;;4.80;;
5923;SDS011;2987;50.884;14.818;2022-09-13T14:47:54;6.30;;;5.13;;
5923;SDS011;2987;50.884;14.818;2022-09-13T14:50:28;5.63;;;4.83;;
5923;SDS011;2987;50.884;14.818;2022-09-13T14:52:59;4.77;;;4.37;;
5923;SDS011;2987;50.884;14.818;2022-09-13T14:55:37;8.70;;;5.20;;
5923;SDS011;2987;50.884;14.818;2022-09-13T14:58:16;8.77;;;5.00;;
5923;SDS011;2987;50.884;14.818;2022-09-13T15:00:53;6.17;;;5.60;;
5923;SDS011;2987;50.884;14.818;2022-09-13T15:03:23;5.33;;;4.73;;
5923;SDS011;2987;50.884;14.818;2022-09-13T15:05:53;5.33;;;4.90;;
5923;SDS011;2987;50.884;14.818;2022-09-13T15:21:40;5.47;;;4.77;;
5923;SDS011;2987;50.884;14.818;2022-09-13T15:24:15;5.63;;;4.63;;
5923;SDS011;2987;50.884;14.818;2022-09-13T15:29:25;6.20;;;5.00;;
5923;SDS011;2987;50.884;14.818;2022-09-13T15:34:23;5.27;;;4.77;;
5923;SDS011;2987;50.884;14.818;2022-09-13T15:42:12;5.00;;;4.60;;
5923;SDS011;2987;50.884;14.818;2022-09-13T15:44:38;4.97;;;4.57;;
5923;SDS011;2987;50.884;14.818;2022-09-13T15:49:38;4.60;;;3.93;;
5923;SDS011;2987;50.884;14.818;2022-09-13T15:52:05;6.17;;;4.73;;
5923;SDS011;2987;50.884;14.818;2022-09-13T15:54:34;5.00;;;4.37;;
5923;SDS011;2987;50.884;14.818;2022-09-13T15:57:05;4.77;;;4.27;;
5923;SDS011;2987;50.884;14.818;2022-09-13T15:59:34;4.80;;;4.33;;
5923;SDS011;2987;50.884;14.818;2022-09-13T16:02:01;4.93;;;4.30;;
5923;SDS011;2987;50.884;14.818;2022-09-13T16:04:40;6.33;;;5.00;;
5923;SDS011;2987;50.884;14.818;2022-09-13T16:07:06;15.93;;;5.10;;
5923;SDS011;2987;50.884;14.818;2022-09-13T16:09:33;5.87;;;5.00;;
5923;SDS011;2987;50.884;14.818;2022-09-13T16:11:59;5.30;;;4.80;;
5923;SDS011;2987;50.884;14.818;2022-09-13T16:14:26;5.90;;;4.50;;
5923;SDS011;2987;50.884;14.818;2022-09-13T16:16:52;5.47;;;4.80;;
5923;SDS011;2987;50.884;14.818;2022-09-13T16:19:19;5.70;;;5.20;;
5923;SDS011;2987;50.884;14.818;2022-09-13T16:21:47;5.70;;;4.50;;
5923;SDS011;2987;50.884;14.818;2022-09-13T16:24:14;4.40;;;4.00;;
5923;SDS011;2987;50.884;14.818;2022-09-13T16:26:41;6.30;;;4.47;;
5923;SDS011;2987;50.884;14.818;2022-09-13T16:29:09;9.37;;;4.73;;
5923;SDS011;2987;50.884;14.818;2022-09-13T16:31:37;7.67;;;5.13;;
5923;SDS011;2987;50.884;14.818;2022-09-13T16:34:03;6.90;;;5.33;;
5923;SDS011;2987;50.884;14.818;2022-09-13T16:36:29;7.03;;;5.77;;
5923;SDS011;2987;50.884;14.818;2022-09-13T16:38:58;5.63;;;5.13;;
5923;SDS011;2987;50.884;14.818;2022-09-13T16:41:25;7.00;;;5.37;;
5923;SDS011;2987;50.884;14.818;2022-09-13T16:43:53;5.43;;;4.93;;
5923;SDS011;2987;50.884;14.818;2022-09-13T16:46:19;6.80;;;5.00;;
5923;SDS011;2987;50.884;14.818;2022-09-13T16:48:54;5.23;;;4.83;;
5923;SDS011;2987;50.884;14.818;2022-09-13T16:51:21;7.70;;;5.37;;
5923;SDS011;2987;50.884;14.818;2022-09-13T16:53:48;8.50;;;4.90;;
5923;SDS011;2987;50.884;14.818;2022-09-13T16:56:16;6.13;;;5.10;;
5923;SDS011;2987;50.884;14.818;2022-09-13T16:58:44;8.33;;;4.97;;
5923;SDS011;2987;50.884;14.818;2022-09-13T17:01:12;4.97;;;4.50;;
5923;SDS011;2987;50.884;14.818;2022-09-13T17:03:41;7.70;;;5.60;;
5923;SDS011;2987;50.884;14.818;2022-09-13T17:06:09;7.67;;;5.60;;
5923;SDS011;2987;50.884;14.818;2022-09-13T17:08:38;5.90;;;5.10;;
5923;SDS011;2987;50.884;14.818;2022-09-13T17:11:07;6.57;;;5.70;;
5923;SDS011;2987;50.884;14.818;2022-09-13T17:13:36;6.60;;;5.90;;
5923;SDS011;2987;50.884;14.818;2022-09-13T17:16:03;6.97;;;5.80;;
5923;SDS011;2987;50.884;14.818;2022-09-13T17:18:32;6.83;;;5.93;;
5923;SDS011;2987;50.884;14.818;2022-09-13T17:20:59;5.93;;;5.40;;
5923;SDS011;2987;50.884;14.818;2022-09-13T17:23:25;8.43;;;5.97;;
5923;SDS011;2987;50.884;14.818;2022-09-13T17:25:52;7.60;;;5.50;;
5923;SDS011;2987;50.884;14.818;2022-09-13T17:28:19;8.50;;;5.20;;
5923;SDS011;2987;50.884;14.818;2022-09-13T17:30:46;7.07;;;5.50;;
5923;SDS011;2987;50.884;14.818;2022-09-13T17:33:12;6.13;;;5.53;;
5923;SDS011;2987;50.884;14.818;2022-09-13T17:35:38;8.90;;;5.47;;
5923;SDS011;2987;50.884;14.818;2022-09-13T17:38:04;7.40;;;5.83;;
5923;SDS011;2987;50.884;14.818;2022-09-13T17:40:31;6.30;;;5.70;;
5923;SDS011;2987;50.884;14.818;2022-09-13T17:42:57;7.57;;;5.80;;
5923;SDS011;2987;50.884;14.818;2022-09-13T17:45:24;6.87;;;6.13;;
5923;SDS011;2987;50.884;14.818;2022-09-13T17:47:51;7.63;;;5.70;;
5923;SDS011;2987;50.884;14.818;2022-09-13T17:50:18;6.47;;;5.83;;
5923;SDS011;2987;50.884;14.818;2022-09-13T17:52:44;6.33;;;5.73;;
5923;SDS011;2987;50.884;14.818;2022-09-13T17:55:11;7.80;;;5.80;;
5923;SDS011;2987;50.884;14.818;2022-09-13T17:57:37;7.27;;;5.47;;
5923;SDS011;2987;50.884;14.818;2022-09-13T18:00:04;12.10;;;6.03;;
5923;SDS011;2987;50.884;14.818;2022-09-13T18:02:35;7.43;;;5.63;;
5923;SDS011;2987;50.884;14.818;2022-09-13T18:05:01;6.23;;;5.47;;
5923;SDS011;2987;50.884;14.818;2022-09-13T18:07:28;6.00;;;5.40;;
5923;SDS011;2987;50.884;14.818;2022-09-13T18:09:54;7.03;;;5.70;;
5923;SDS011;2987;50.884;14.818;2022-09-13T18:12:20;6.20;;;5.30;;
5923;SDS011;2987;50.884;14.818;2022-09-13T18:14:46;11.07;;;6.03;;
5923;SDS011;2987;50.884;14.818;2022-09-13T18:17:12;6.83;;;5.83;;
5923;SDS011;2987;50.884;14.818;2022-09-13T18:19:39;8.00;;;5.83;;
5923;SDS011;2987;50.884;14.818;2022-09-13T18:22:06;7.50;;;5.93;;
5923;SDS011;2987;50.884;14.818;2022-09-13T18:24:33;6.23;;;5.63;;
5923;SDS011;2987;50.884;14.818;2022-09-13T18:27:00;6.30;;;5.70;;
5923;SDS011;2987;50.884;14.818;2022-09-13T18:29:27;9.33;;;5.50;;
5923;SDS011;2987;50.884;14.818;2022-09-13T18:31:56;6.70;;;5.47;;
5923;SDS011;2987;50.884;14.818;2022-09-13T18:34:23;6.97;;;5.60;;
5923;SDS011;2987;50.884;14.818;2022-09-13T18:36:49;6.33;;;5.73;;
5923;SDS011;2987;50.884;14.818;2022-09-13T18:39:17;6.37;;;5.70;;
5923;SDS011;2987;50.884;14.818;2022-09-13T18:41:47;6.33;;;5.73;;
5923;SDS011;2987;50.884;14.818;2022-09-13T18:44:14;6.77;;;6.07;;
5923;SDS011;2987;50.884;14.818;2022-09-13T18:46:41;7.47;;;5.53;;
5923;SDS011;2987;50.884;14.818;2022-09-13T18:49:08;9.30;;;6.57;;
5923;SDS011;2987;50.884;14.818;2022-09-13T18:51:36;8.80;;;6.33;;
5923;SDS011;2987;50.884;14.818;2022-09-13T18:54:04;6.07;;;5.47;;
5923;SDS011;2987;50.884;14.818;2022-09-13T18:56:32;6.80;;;6.00;;
5923;SDS011;2987;50.884;14.818;2022-09-13T18:59:00;7.10;;;6.30;;
5923;SDS011;2987;50.884;14.818;2022-09-13T19:01:30;6.33;;;5.73;;